Time;durP1;ratioP1;P1;durP2;ratioP2;P2;SDS_P1;SDS_P2;PMS_P1;PMS_P2;Temp;Humidity;BMP_temperature;BMP_pressure;BME280_temperature;BME280_humidity;BME280_pressure;Samples;Min_cycle;Max_cycle;Signal;HPM_P1;HPM_P2
2022/11/23 00:01:36;;;;;;;3.72;3.10;;;;;;;1.13;99.23;98547.75;4986964;28;20034;-65
2022/11/23 00:04:07;;;;;;;3.88;3.45;;;;;;;1.06;99.07;98531.59;4986473;28;20049;-65
2022/11/23 00:06:33;;;;;;;3.78;3.10;;;;;;;1.07;99.35;98543.50;4986266;28;20385;-64
2022/11/23 00:09:00;;;;;;;4.47;3.20;;;;;;;1.00;99.79;98532.47;4995070;28;20031;-65
2022/11/23 00:11:26;;;;;;;4.93;3.25;;;;;;;0.95;99.60;98520.56;5001531;28;20027;-63
2022/11/23 00:13:53;;;;;;;5.05;3.65;;;;;;;1.09;99.57;98540.94;4986214;28;20038;-64
2022/11/23 00:16:24;;;;;;;4.85;3.22;;;;;;;0.89;99.74;98523.13;4986516;28;20053;-64
2022/11/23 00:18:54;;;;;;;4.85;3.50;;;;;;;1.08;99.68;98547.72;4986084;28;20323;-63
2022/11/23 00:21:22;;;;;;;4.40;3.50;;;;;;;0.92;99.71;98534.16;4986571;28;20101;-64
2022/11/23 00:23:48;;;;;;;4.28;3.20;;;;;;;1.12;99.65;98558.78;4990235;28;20102;-64
2022/11/23 00:26:14;;;;;;;4.80;3.70;;;;;;;1.06;99.17;98562.19;4986377;28;20031;-64
2022/11/23 00:28:41;;;;;;;5.80;3.25;;;;;;;1.12;99.49;98554.53;4984852;28;20031;-63
2022/11/23 00:31:08;;;;;;;3.97;3.30;;;;;;;1.20;99.21;98551.97;4986116;28;20153;-64
2022/11/23 00:33:34;;;;;;;7.55;3.60;;;;;;;1.17;99.21;98549.44;4986169;28;20195;-63
2022/11/23 00:36:04;;;;;;;5.50;3.30;;;;;;;1.13;98.93;98556.22;4984957;28;20078;-65
2022/11/23 00:38:30;;;;;;;3.55;3.25;;;;;;;1.15;99.19;98544.31;4985900;28;20023;-65
2022/11/23 00:40:58;;;;;;;4.82;3.70;;;;;;;1.09;99.11;98538.41;4985898;28;20041;-65
2022/11/23 00:43:23;;;;;;;4.20;2.90;;;;;;;1.00;99.29;98541.81;5005574;28;20089;-65
2022/11/23 00:45:49;;;;;;;3.47;3.03;;;;;;;1.12;99.18;98546.03;4988855;28;20271;-64
2022/11/23 00:48:15;;;;;;;3.28;2.97;;;;;;;1.03;99.50;98554.56;4985875;28;20050;-64
2022/11/23 00:50:41;;;;;;;3.85;3.10;;;;;;;1.05;98.97;98555.38;4985684;28;20041;-64
2022/11/23 00:53:06;;;;;;;3.10;2.80;;;;;;;0.88;99.55;98555.41;4985769;28;20050;-64
2022/11/23 00:55:32;;;;;;;4.10;3.17;;;;;;;1.04;99.70;98551.13;4984546;28;20061;-63
2022/11/23 00:57:57;;;;;;;7.53;4.15;;;;;;;1.08;99.39;98550.28;4985575;28;20042;-64
2022/11/23 01:00:23;;;;;;;3.22;2.83;;;;;;;1.05;99.37;98550.28;4984664;28;20030;-64
2022/11/23 01:02:49;;;;;;;3.80;2.70;;;;;;;0.95;99.16;98549.44;4984465;28;20030;-64
2022/11/23 01:05:14;;;;;;;2.88;2.60;;;;;;;1.07;99.35;98551.16;4985601;28;20027;-63
2022/11/23 01:07:40;;;;;;;3.30;2.60;;;;;;;1.02;99.47;98538.38;4968971;28;20027;-65
2022/11/23 01:10:07;;;;;;;6.50;3.55;;;;;;;1.24;99.18;98529.84;4983182;28;20035;-64
2022/11/23 01:12:32;;;;;;;5.07;3.15;;;;;;;1.29;98.81;98539.19;4998250;28;20326;-64
2022/11/23 01:14:58;;;;;;;6.15;4.18;;;;;;;1.34;98.52;98534.94;4996244;28;20054;-64
2022/11/23 01:17:24;;;;;;;3.85;3.00;;;;;;;1.33;98.15;98542.59;4985123;28;20026;-64
2022/11/23 01:19:50;;;;;;;4.05;3.00;;;;;;;1.24;98.40;98530.72;4985153;28;20170;-64
2022/11/23 01:22:15;;;;;;;4.00;3.60;;;;;;;1.19;98.21;98546.00;4985461;28;20034;-64
2022/11/23 01:24:41;;;;;;;4.22;3.30;;;;;;;1.12;98.47;98538.38;4989299;28;20050;-64
2022/11/23 01:27:07;;;;;;;4.72;3.63;;;;;;;1.19;98.38;98533.25;4985053;28;20035;-64
2022/11/23 01:29:32;;;;;;;5.22;3.78;;;;;;;1.28;98.57;98534.94;4985175;28;20025;-65
2022/11/23 01:31:58;;;;;;;3.50;3.00;;;;;;;1.21;98.27;98543.44;4984832;28;20062;-65
2022/11/23 01:34:23;;;;;;;4.28;3.20;;;;;;;1.24;98.27;98535.81;4984785;28;20251;-65
2022/11/23 01:36:49;;;;;;;5.53;3.53;;;;;;;1.18;98.35;98541.78;4984766;28;20082;-65
2022/11/23 01:39:15;;;;;;;3.95;3.17;;;;;;;1.06;98.53;98533.31;4984790;28;20030;-64
2022/11/23 01:41:42;;;;;;;3.22;2.70;;;;;;;1.06;98.71;98543.50;4984818;28;20342;-65
2022/11/23 01:44:31;;;;;;;3.15;2.85;;;;;;;1.02;99.14;98540.09;4984844;28;20072;-65
2022/11/23 01:47:01;;;;;;;3.70;3.20;;;;;;;1.12;98.95;98531.56;4984483;28;20196;-63
2022/11/23 01:49:32;;;;;;;3.92;3.53;;;;;;;1.16;98.90;98527.34;4965548;29;20098;-64
2022/11/23 01:52:05;;;;;;;4.20;3.50;;;;;;;1.03;99.05;98527.34;4983358;28;20219;-63
2022/11/23 01:54:37;;;;;;;4.32;3.25;;;;;;;0.82;99.16;98518.03;4985099;28;20311;-64
2022/11/23 01:57:05;;;;;;;;;;;;;;;1.03;99.50;98536.72;4984753;28;20034;-63
2022/11/23 01:59:33;;;;;;;6.43;3.17;;;;;;;0.93;98.94;98519.75;4984343;28;19932;-64
2022/11/23 02:01:59;;;;;;;4.28;3.70;;;;;;;1.10;99.29;98533.28;4984512;28;20251;-64
2022/11/23 02:04:31;;;;;;;5.75;4.20;;;;;;;1.14;99.46;98544.31;4983334;28;20026;-63
2022/11/23 02:06:58;;;;;;;;;;;;;;;1.19;99.22;98546.00;4973897;28;20023;-62
2022/11/23 02:09:25;;;;;;;4.70;3.72;;;;;;;1.03;99.29;98535.00;4976267;28;19906;-63
2022/11/23 02:11:51;;;;;;;6.72;4.40;;;;;;;1.15;99.33;98541.75;4984041;28;20041;-63
2022/11/23 02:14:17;;;;;;;5.13;3.58;;;;;;;1.05;99.19;98539.25;4984544;28;20073;-63
2022/11/23 02:16:42;;;;;;;3.95;3.50;;;;;;;1.22;99.21;98546.88;4984645;28;20027;-63
2022/11/23 02:19:21;;;;;;;4.78;3.83;;;;;;;1.20;98.64;98542.63;4984083;28;20311;-63
2022/11/23 02:21:50;;;;;;;5.35;3.90;;;;;;;1.20;98.82;98550.25;4989485;28;20079;-63
2022/11/23 02:24:29;;;;;;;5.55;4.18;;;;;;;1.13;99.25;98551.13;4999055;28;20030;-63
2022/11/23 02:26:56;;;;;;;6.15;4.35;;;;;;;1.07;99.38;98548.59;4996129;28;20034;-62
2022/11/23 02:29:24;;;;;;;5.55;3.90;;;;;;;0.97;99.65;98527.38;4984347;28;20026;-62
2022/11/23 02:31:50;;;;;;;5.40;3.90;;;;;;;1.25;99.57;98536.66;4983935;28;20035;-63
2022/11/23 02:34:16;;;;;;;6.80;4.97;;;;;;;1.32;98.93;98541.72;4984175;28;20033;-64
2022/11/23 02:36:51;;;;;;;6.45;4.45;;;;;;;1.10;98.96;98528.19;4983778;28;20378;-63
2022/11/23 02:39:37;;;;;;;6.03;4.47;;;;;;;1.18;99.03;98549.44;4983870;28;20090;-63
2022/11/23 02:42:04;;;;;;;6.57;4.60;;;;;;;1.15;99.31;98541.75;4991699;28;20030;-64
2022/11/23 02:44:48;;;;;;;6.70;4.82;;;;;;;1.15;99.78;98538.38;4999924;28;20042;-64
2022/11/23 02:47:14;;;;;;;8.63;5.50;;;;;;;1.31;99.50;98539.19;4983938;28;20326;-64
2022/11/23 02:49:41;;;;;;;7.55;5.65;;;;;;;1.08;99.30;98544.34;4983694;28;20125;-63
2022/11/23 02:52:07;;;;;;;6.25;5.50;;;;;;;1.16;99.37;98543.47;4984270;28;20046;-63
2022/11/23 02:54:34;;;;;;;8.50;5.70;;;;;;;1.34;99.34;98544.25;4983809;28;20050;-63
2022/11/23 02:56:59;;;;;;;7.70;5.97;;;;;;;1.41;98.76;98542.56;4991056;28;20326;-64
2022/11/23 02:59:25;;;;;;;8.32;5.40;;;;;;;1.10;98.84;98540.06;4987994;28;20088;-64
2022/11/23 03:01:51;;;;;;;7.03;5.95;;;;;;;1.18;99.09;98539.22;4992238;28;20027;-65
2022/11/23 03:04:17;;;;;;;7.50;5.75;;;;;;;1.06;99.15;98546.91;4983678;28;20160;-63
2022/11/23 03:06:42;;;;;;;8.48;6.38;;;;;;;1.25;99.03;98555.34;4974863;28;20042;-63
2022/11/23 03:09:08;;;;;;;8.45;6.18;;;;;;;1.23;98.84;98551.97;4972867;28;20027;-64
2022/11/23 03:11:34;;;;;;;7.65;5.88;;;;;;;1.34;98.69;98551.91;4983758;28;20385;-64
2022/11/23 03:13:59;;;;;;;9.30;6.30;;;;;;;1.31;98.48;98536.63;4982727;28;20061;-63
2022/11/23 03:16:25;;;;;;;7.07;5.80;;;;;;;1.49;98.22;98541.66;4983538;28;20022;-64
2022/11/23 03:18:51;;;;;;;9.02;7.25;;;;;;;1.42;98.22;98540.00;4997389;28;20034;-65
2022/11/23 03:21:17;;;;;;;9.90;6.72;;;;;;;1.47;98.05;98548.50;4993543;28;20196;-63
2022/11/23 03:23:43;;;;;;;11.07;7.38;;;;;;;1.52;97.72;98546.75;4990937;28;20058;-64
2022/11/23 03:26:09;;;;;;;9.90;8.07;;;;;;;1.50;97.72;98548.47;4987423;28;20031;-64
2022/11/23 03:28:34;;;;;;;11.15;7.68;;;;;;;1.50;97.34;98548.47;4987366;28;20215;-63
2022/11/23 03:31:00;;;;;;;11.65;8.05;;;;;;;1.45;97.50;98539.16;4987016;28;20074;-63
2022/11/23 03:33:25;;;;;;;10.40;7.82;;;;;;;1.55;97.47;98551.88;4987207;28;20188;-63
2022/11/23 03:35:51;;;;;;;10.23;7.60;;;;;;;1.61;97.26;98553.56;4993096;28;20315;-63
2022/11/23 03:38:17;;;;;;;12.55;8.13;;;;;;;1.60;97.06;98553.56;4998890;28;20078;-63
2022/11/23 03:40:46;;;;;;;12.40;8.80;;;;;;;1.63;96.98;98563.75;4987013;28;20039;-64
2022/11/23 03:43:13;;;;;;;9.30;7.07;;;;;;;1.64;96.95;98560.31;4996236;28;20037;-63
2022/11/23 03:45:39;;;;;;;10.38;7.53;;;;;;;1.62;96.73;98567.16;4994428;28;20038;-63
2022/11/23 03:48:05;;;;;;;7.57;6.05;;;;;;;1.72;96.70;98558.59;4986927;28;20031;-63
2022/11/23 03:50:30;;;;;;;8.20;6.60;;;;;;;1.71;96.41;98557.75;4986944;28;20054;-63
2022/11/23 03:52:56;;;;;;;8.20;6.72;;;;;;;1.65;96.28;98562.03;4986200;28;20102;-63
2022/11/23 03:55:22;;;;;;;9.73;6.30;;;;;;;1.63;96.10;98561.19;4986776;28;20042;-63
2022/11/23 03:57:48;;;;;;;8.40;6.20;;;;;;;1.54;96.45;98555.28;4984913;28;20166;-64
2022/11/23 04:00:15;;;;;;;10.07;6.40;;;;;;;1.67;96.45;98560.34;4986608;28;20042;-63
2022/11/23 04:02:41;;;;;;;8.85;6.47;;;;;;;1.54;96.57;98549.34;4986718;28;20034;-63
2022/11/23 04:05:07;;;;;;;9.02;5.70;;;;;;;1.62;96.85;98547.56;4986803;28;20050;-63
2022/11/23 04:07:33;;;;;;;7.47;6.00;;;;;;;1.61;96.60;98557.78;4973967;28;20026;-64
2022/11/23 04:09:58;;;;;;;8.38;5.85;;;;;;;1.68;96.48;98555.22;4985247;28;20046;-63
2022/11/23 04:12:25;;;;;;;9.55;5.18;;;;;;;1.64;96.59;98553.53;4986751;28;20062;-64
2022/11/23 04:14:51;;;;;;;6.78;4.70;;;;;;;1.57;97.15;98554.41;4986094;28;20050;-63
2022/11/23 04:17:17;;;;;;;5.90;5.00;;;;;;;1.53;96.88;98542.53;4985872;28;20239;-65
2022/11/23 04:19:42;;;;;;;5.50;4.75;;;;;;;1.51;96.80;98546.75;4985989;28;20296;-64
2022/11/23 04:22:08;;;;;;;5.55;4.53;;;;;;;1.68;96.77;98552.69;4985282;28;20050;-64
2022/11/23 04:24:33;;;;;;;5.93;4.20;;;;;;;1.64;96.69;98558.66;4992537;28;20031;-64
2022/11/23 04:26:59;;;;;;;6.15;4.50;;;;;;;1.68;96.63;98559.47;4986119;28;20207;-63
2022/11/23 04:29:25;;;;;;;4.88;4.00;;;;;;;1.51;96.31;98556.97;4984604;28;20070;-64
2022/11/23 04:31:50;;;;;;;4.57;3.80;;;;;;;1.46;96.82;98561.25;4986492;28;20106;-63
2022/11/23 04:34:16;;;;;;;4.50;3.50;;;;;;;1.53;96.82;98561.22;4986026;28;20101;-64
2022/11/23 04:36:42;;;;;;;4.07;3.45;;;;;;;1.51;96.88;98556.97;4985933;28;20107;-63
2022/11/23 04:39:09;;;;;;;5.90;4.20;;;;;;;1.53;96.93;98562.94;4985630;28;20089;-63
2022/11/23 04:41:34;;;;;;;5.47;3.63;;;;;;;1.50;96.85;98568.88;4985760;28;20022;-65
2022/11/23 04:44:00;;;;;;;4.68;3.63;;;;;;;1.49;96.65;98567.19;4985914;28;20302;-64
2022/11/23 04:46:25;;;;;;;4.28;3.45;;;;;;;1.47;96.96;98580.78;4985905;28;20343;-64
2022/11/23 04:48:51;;;;;;;4.45;3.60;;;;;;;1.48;97.20;98573.16;4984208;28;20057;-64
2022/11/23 04:51:16;;;;;;;4.43;3.65;;;;;;;1.52;96.89;98571.44;4985616;28;20034;-63
2022/11/23 04:53:42;;;;;;;3.50;3.20;;;;;;;1.44;97.16;98563.81;4985238;28;20034;-63
2022/11/23 04:56:08;;;;;;;4.68;3.33;;;;;;;1.43;97.08;98574.88;4994054;28;20028;-63
2022/11/23 04:58:35;;;;;;;4.25;3.60;;;;;;;1.45;97.13;98575.69;4985705;28;20026;-63
2022/11/23 05:01:01;;;;;;;4.20;3.80;;;;;;;1.48;97.25;98572.28;4983732;28;20034;-64
2022/11/23 05:03:27;;;;;;;4.30;3.90;;;;;;;1.50;97.50;98566.34;4984297;28;20219;-63
2022/11/23 05:05:53;;;;;;;4.07;3.67;;;;;;;1.53;96.83;98563.78;4984981;28;20077;-63
2022/11/23 05:08:18;;;;;;;4.10;3.70;;;;;;;1.59;97.32;98562.06;4986442;28;20069;-64
2022/11/23 05:10:44;;;;;;;3.30;3.00;;;;;;;1.45;97.12;98568.03;4994661;28;20034;-63
2022/11/23 05:13:09;;;;;;;3.72;3.38;;;;;;;1.55;97.02;98567.19;4984067;28;20067;-63
2022/11/23 05:15:35;;;;;;;4.45;3.22;;;;;;;1.45;97.63;98565.50;4985171;28;20031;-63
2022/11/23 05:18:03;;;;;;;5.32;3.50;;;;;;;1.57;97.23;98567.19;4985046;28;20231;-63
2022/11/23 05:20:29;;;;;;;6.80;3.20;;;;;;;1.67;96.93;98571.38;4981581;28;20097;-64
2022/11/23 05:22:54;;;;;;;4.18;3.10;;;;;;;1.61;96.54;98573.09;4986780;28;20034;-64
2022/11/23 05:25:20;;;;;;;4.10;3.65;;;;;;;1.53;96.84;98558.66;4985022;28;20034;-63
2022/11/23 05:27:46;;;;;;;3.88;3.47;;;;;;;1.64;96.47;98575.63;4985125;28;20055;-64
2022/11/23 05:30:12;;;;;;;3.80;3.47;;;;;;;1.60;96.58;98576.53;4984960;28;20365;-63
2022/11/23 05:32:38;;;;;;;3.53;2.80;;;;;;;1.51;96.14;98577.38;4986702;28;20221;-62
2022/11/23 05:35:04;;;;;;;3.97;2.72;;;;;;;1.55;96.34;98579.94;5003960;28;20034;-63
2022/11/23 05:37:30;;;;;;;4.97;3.47;;;;;;;1.31;96.95;98587.63;4986029;28;20054;-64
2022/11/23 05:39:56;;;;;;;3.85;2.80;;;;;;;1.50;97.35;98593.56;4984740;28;20065;-64
2022/11/23 05:42:22;;;;;;;3.55;3.05;;;;;;;1.62;97.02;98592.66;4984929;28;20427;-63
2022/11/23 05:44:47;;;;;;;4.68;3.42;;;;;;;1.57;96.63;98604.56;4984553;28;20027;-64
2022/11/23 05:47:13;;;;;;;4.40;3.50;;;;;;;1.59;96.64;98600.34;4984379;28;20472;-63
2022/11/23 05:49:38;;;;;;;3.75;3.25;;;;;;;1.49;97.35;98602.06;4984676;28;20081;-64
2022/11/23 05:52:04;;;;;;;4.07;3.30;;;;;;;1.65;97.03;98607.97;4984503;28;20027;-63
2022/11/23 05:54:30;;;;;;;4.50;4.03;;;;;;;1.61;97.05;98609.69;4984279;28;20043;-63
2022/11/23 05:56:56;;;;;;;4.80;3.70;;;;;;;1.68;97.16;98597.75;4983685;28;20050;-64
2022/11/23 05:59:21;;;;;;;5.45;3.88;;;;;;;1.47;96.84;98604.63;4984421;28;20090;-64
2022/11/23 06:01:47;;;;;;;8.50;4.20;;;;;;;1.36;97.82;98596.97;4984245;28;20426;-63
2022/11/23 06:04:13;;;;;;;6.85;4.47;;;;;;;1.49;97.13;98608.00;4984348;28;20227;-64
2022/11/23 06:06:38;;;;;;;5.95;4.03;;;;;;;1.42;97.43;98598.66;4979881;28;20027;-63
2022/11/23 06:09:04;;;;;;;4.57;3.80;;;;;;;1.28;97.81;98592.75;4977675;28;20041;-64
2022/11/23 06:11:31;;;;;;;6.85;4.35;;;;;;;1.19;98.24;98588.50;4984636;28;20033;-63
2022/11/23 06:13:57;;;;;;;5.95;4.97;;;;;;;1.29;98.31;98599.56;4984387;28;20318;-64
2022/11/23 06:16:22;;;;;;;7.05;4.95;;;;;;;1.33;98.47;98598.69;4984281;28;20022;-64
2022/11/23 06:18:48;;;;;;;5.20;4.70;;;;;;;1.23;98.27;98590.22;4996197;28;20053;-63
2022/11/23 06:21:14;;;;;;;5.32;4.60;;;;;;;1.31;98.26;98601.25;4995788;28;20103;-63
2022/11/23 06:23:40;;;;;;;6.40;4.78;;;;;;;1.28;98.45;98602.94;4990416;28;20030;-63
2022/11/23 06:26:05;;;;;;;5.70;4.70;;;;;;;1.28;98.16;98582.53;4980658;28;20342;-63
2022/11/23 06:28:31;;;;;;;6.50;4.80;;;;;;;1.50;98.13;98594.41;4981121;28;20069;-64
2022/11/23 06:31:02;;;;;;;6.13;4.88;;;;;;;1.32;97.88;98590.19;4983522;28;20037;-62
2022/11/23 06:33:27;;;;;;;4.97;4.45;;;;;;;1.44;98.33;98594.44;4983991;28;20027;-63
2022/11/23 06:35:54;;;;;;;6.32;5.35;;;;;;;1.49;97.83;98596.97;4982415;28;20041;-62
2022/11/23 06:38:20;;;;;;;5.68;4.90;;;;;;;1.46;97.68;98597.81;4983798;28;20046;-64
2022/11/23 06:40:46;;;;;;;5.18;4.55;;;;;;;1.51;97.69;98593.56;4983865;28;20090;-64
2022/11/23 06:43:11;;;;;;;7.20;5.03;;;;;;;1.57;97.09;98599.47;4984170;28;20041;-63
2022/11/23 06:45:37;;;;;;;7.85;5.80;;;;;;;1.62;97.54;98595.22;4978103;28;20035;-64
2022/11/23 06:48:03;;;;;;;8.05;5.32;;;;;;;1.61;96.99;98593.50;4986246;28;20213;-65
2022/11/23 06:50:28;;;;;;;7.97;5.78;;;;;;;1.50;97.16;98591.00;4991103;28;20054;-65
2022/11/23 06:52:55;;;;;;;8.07;5.68;;;;;;;1.51;97.38;98600.34;4994021;28;20259;-63
2022/11/23 06:55:22;;;;;;;6.95;6.00;;;;;;;1.47;97.16;98606.31;4991838;28;20217;-63
2022/11/23 06:57:48;;;;;;;7.63;6.25;;;;;;;1.37;97.62;98598.69;4989139;28;20291;-64
2022/11/23 07:00:14;;;;;;;7.72;6.47;;;;;;;1.40;97.67;98602.06;4981272;28;20038;-64
2022/11/23 07:02:40;;;;;;;8.90;6.57;;;;;;;1.34;97.40;98602.94;4989598;28;20031;-63
2022/11/23 07:05:06;;;;;;;7.88;6.93;;;;;;;1.42;97.79;98601.22;4981774;28;20034;-64
2022/11/23 07:07:31;;;;;;;7.35;6.65;;;;;;;1.64;97.41;98602.03;4990085;28;20242;-63
2022/11/23 08:14:03;;;;;;;6.50;5.00;;;;;;;1.10;100.00;98626.75;5096852;27;24482;-63
2022/11/23 08:16:29;;;;;;;6.32;4.85;;;;;;;1.17;99.99;98618.28;5094952;28;20119;-64
2022/11/23 08:18:55;;;;;;;5.47;4.47;;;;;;;1.36;99.60;98619.94;5067739;28;20056;-65
2022/11/23 08:21:22;;;;;;;4.57;4.18;;;;;;;1.34;98.81;98613.13;5058744;28;20324;-66
2022/11/23 08:23:47;;;;;;;5.20;4.28;;;;;;;1.45;98.76;98611.41;5058676;28;20209;-66
2022/11/23 08:26:13;;;;;;;5.93;4.03;;;;;;;1.65;98.16;98620.72;5060117;28;20064;-67
2022/11/23 08:28:39;;;;;;;3.55;3.22;;;;;;;1.47;97.56;98613.94;5069379;28;20035;-66
2022/11/23 08:31:10;;;;;;;5.07;3.50;;;;;;;1.68;97.23;98615.59;5066430;28;20021;-65
2022/11/23 08:33:36;;;;;;;3.60;3.30;;;;;;;1.75;96.96;98612.19;5077620;28;20067;-65
2022/11/23 08:36:04;;;;;;;3.50;3.20;;;;;;;1.95;96.39;98613.81;5059890;28;20067;-66
2022/11/23 08:38:30;;;;;;;4.15;3.28;;;;;;;2.09;96.44;98624.81;5060047;28;20311;-65
2022/11/23 08:41:00;;;;;;;3.38;2.70;;;;;;;1.80;95.62;98607.91;5055254;28;20029;-65
2022/11/23 08:43:26;;;;;;;4.57;3.03;;;;;;;2.10;95.79;98626.53;5049273;28;20025;-65
2022/11/23 08:45:58;;;;;;;3.17;2.60;;;;;;;1.84;95.38;98624.06;5056534;28;20088;-66
2022/11/23 08:48:24;;;;;;;;;;;;;;;1.77;95.47;98638.56;5060265;28;20048;-65
2022/11/23 08:50:50;;;;;;;2.63;2.30;;;;;;;1.72;94.96;98623.28;5059690;28;19909;-67
2022/11/23 08:53:16;;;;;;;3.55;2.90;;;;;;;1.90;95.36;98634.25;5059540;28;20017;-66
2022/11/23 08:55:42;;;;;;;5.47;2.58;;;;;;;1.87;95.54;98640.22;5056050;28;20037;-65
2022/11/23 08:58:09;;;;;;;3.45;2.78;;;;;;;1.84;95.68;98632.59;5050957;28;20030;-65
2022/11/23 09:00:34;;;;;;;3.50;3.10;;;;;;;1.86;95.47;98646.19;5050004;28;20093;-65
2022/11/23 09:03:00;;;;;;;2.75;2.55;;;;;;;1.80;94.90;98646.19;5053231;28;20132;-66
2022/11/23 09:05:28;;;;;;;3.15;2.60;;;;;;;1.58;95.71;98640.28;5074571;28;20047;-65
2022/11/23 09:07:54;;;;;;;5.82;3.08;;;;;;;1.83;96.31;98637.69;5062083;28;20329;-66
2022/11/23 09:10:20;;;;;;;4.82;3.13;;;;;;;1.61;95.87;98594.38;5052436;28;20048;-65
2022/11/23 09:12:47;;;;;;;3.30;3.00;;;;;;;1.53;95.78;98634.38;5053237;28;20321;-65
2022/11/23 09:15:13;;;;;;;5.55;3.42;;;;;;;1.79;95.85;98646.22;5039488;28;20350;-65
2022/11/23 09:17:38;;;;;;;4.75;3.40;;;;;;;1.93;95.63;98635.97;5048512;28;20060;-67
2022/11/23 09:20:05;;;;;;;4.70;3.60;;;;;;;1.97;95.15;98637.66;5044389;28;20241;-66
2022/11/23 09:22:30;;;;;;;4.60;3.40;;;;;;;1.70;94.73;98627.50;5037284;28;20034;-65
2022/11/23 09:24:56;;;;;;;3.88;3.58;;;;;;;2.00;95.17;98635.91;5037886;28;20018;-66
2022/11/23 09:27:22;;;;;;;3.67;3.30;;;;;;;1.90;94.68;98637.66;5033371;28;20045;-66
2022/11/23 09:29:47;;;;;;;3.97;3.58;;;;;;;1.99;94.12;98635.94;5033859;28;20199;-65
2022/11/23 09:32:13;;;;;;;4.00;3.63;;;;;;;2.02;94.35;98639.34;5033091;28;20049;-66
2022/11/23 09:34:39;;;;;;;5.55;3.70;;;;;;;2.13;93.86;98623.94;5034388;28;20041;-67
2022/11/23 09:37:05;;;;;;;5.68;4.22;;;;;;;2.23;93.99;98634.97;5033772;28;20080;-66
2022/11/23 09:39:30;;;;;;;5.72;3.88;;;;;;;2.24;93.74;98632.41;5035031;28;20201;-66
2022/11/23 09:42:05;;;;;;;4.18;3.25;;;;;;;2.36;94.14;98636.59;5035351;28;20025;-66
2022/11/23 09:44:51;;;;;;;4.38;3.50;;;;;;;2.32;93.60;98640.03;5034613;28;20028;-67
2022/11/23 09:47:35;;;;;;;5.85;3.42;;;;;;;2.24;93.16;98623.91;5034933;28;20249;-66
2022/11/23 09:50:12;;;;;;;3.60;3.20;;;;;;;2.29;93.29;98636.66;5037980;28;20030;-66
2022/11/23 09:52:43;;;;;;;3.95;3.55;;;;;;;2.11;93.12;98617.16;5036035;28;20083;-67
2022/11/23 09:55:16;;;;;;;3.53;3.22;;;;;;;2.14;93.06;98627.34;5036149;28;20066;-66
2022/11/23 09:57:45;;;;;;;4.90;3.30;;;;;;;2.18;92.60;98623.91;5036468;28;20044;-65
2022/11/23 10:00:16;;;;;;;4.45;3.50;;;;;;;2.34;93.09;98632.38;5036027;28;20029;-65
2022/11/23 10:02:42;;;;;;;3.83;3.50;;;;;;;2.09;92.43;98634.19;5036052;28;20048;-65
2022/11/23 10:05:18;;;;;;;5.88;3.47;;;;;;;2.14;92.90;98629.91;5035557;28;20021;-67
2022/11/23 10:08:08;;;;;;;3.72;3.33;;;;;;;2.07;92.89;98641.88;5034396;28;20248;-65
2022/11/23 10:10:48;;;;;;;3.45;3.15;;;;;;;1.88;93.29;98620.63;5036354;28;20147;-65
2022/11/23 10:13:33;;;;;;;4.97;4.50;;;;;;;1.92;93.84;98627.44;5032479;28;20060;-66
2022/11/23 10:16:17;;;;;;;5.10;4.25;;;;;;;1.79;93.84;98621.53;5035724;28;20026;-65
2022/11/23 10:19:12;;;;;;;3.75;3.35;;;;;;;2.11;94.00;98641.00;5036431;28;20037;-65
2022/11/23 10:22:09;;;;;;;4.80;3.65;;;;;;;2.11;93.43;98635.88;5042252;28;20026;-65
2022/11/23 10:24:49;;;;;;;4.75;4.10;;;;;;;2.00;92.93;98620.59;5046827;28;20045;-66
2022/11/23 10:27:18;;;;;;;3.45;3.15;;;;;;;2.26;93.16;98627.28;5031632;28;20097;-65
2022/11/23 10:29:44;;;;;;;4.13;3.40;;;;;;;2.10;93.08;98631.63;5043692;28;20278;-66
2022/11/23 10:32:40;;;;;;;5.15;3.60;;;;;;;2.28;92.96;98640.91;5030363;28;20229;-65
2022/11/23 10:35:12;;;;;;;3.47;3.17;;;;;;;2.22;92.90;98639.25;5038081;28;20067;-66
2022/11/23 10:37:39;;;;;;;3.78;3.40;;;;;;;2.17;93.03;98640.97;5039860;28;20029;-65
2022/11/23 10:40:21;;;;;;;4.85;3.40;;;;;;;2.00;92.48;98622.31;5028710;28;20082;-64
2022/11/23 10:42:50;;;;;;;;;;;;;;;2.03;92.68;98640.16;5034490;28;20321;-66
2022/11/23 10:45:22;;;;;;;3.50;3.20;;;;;;;2.19;93.44;98636.69;5031891;28;19913;-66
2022/11/23 10:47:51;;;;;;;3.83;3.53;;;;;;;2.12;93.09;98623.97;5032770;28;20128;-66
2022/11/23 10:50:24;;;;;;;5.13;3.60;;;;;;;2.24;93.08;98642.63;5025547;28;20241;-65
2022/11/23 10:52:56;;;;;;;4.68;4.22;;;;;;;2.20;93.11;98635.84;5033545;28;20025;-67
2022/11/23 10:55:24;;;;;;;;;;;;;;;2.35;92.76;98645.13;5041768;28;20094;-67
2022/11/23 10:57:50;;;;;;;5.78;3.53;;;;;;;2.37;92.72;98643.41;5040969;28;19909;-66
2022/11/23 11:00:18;;;;;;;4.38;3.60;;;;;;;2.30;92.21;98648.56;5024645;28;20056;-65
2022/11/23 11:02:53;;;;;;;3.70;3.40;;;;;;;2.29;92.78;98646.88;5042886;28;20037;-65
2022/11/23 11:05:38;;;;;;;6.30;3.40;;;;;;;2.37;92.98;98650.25;5033765;28;20026;-66
2022/11/23 11:08:18;;;;;;;5.22;3.78;;;;;;;2.09;92.51;98624.81;5024190;28;20105;-67
2022/11/23 11:11:04;;;;;;;4.05;3.67;;;;;;;2.23;91.92;98648.59;5023646;28;20036;-67
2022/11/23 11:13:43;;;;;;;4.10;3.70;;;;;;;2.15;92.54;98634.16;5034368;28;20038;-65
2022/11/23 11:16:25;;;;;;;4.90;4.13;;;;;;;2.13;92.26;98651.19;5038266;28;20080;-65
2022/11/23 11:18:51;;;;;;;7.15;4.18;;;;;;;1.80;92.63;98651.31;5026694;28;20040;-65
2022/11/23 11:21:31;;;;;;;4.53;4.13;;;;;;;1.87;92.97;98660.66;5042958;28;20036;-66
2022/11/23 11:24:02;;;;;;;4.82;4.40;;;;;;;1.94;93.27;98660.63;5041541;28;20048;-66
2022/11/23 11:26:31;;;;;;;4.25;3.85;;;;;;;1.81;92.93;98654.69;5033383;28;20022;-66
2022/11/23 11:29:04;;;;;;;5.22;4.55;;;;;;;1.96;93.45;98669.13;5033362;28;20029;-66
2022/11/23 11:31:49;;;;;;;6.20;4.43;;;;;;;2.05;92.89;98680.19;5034154;28;20021;-66
2022/11/23 11:34:34;;;;;;;4.85;4.35;;;;;;;2.08;93.29;98684.41;5034310;28;20021;-66
2022/11/23 11:37:45;;;;;;;5.38;4.88;;;;;;;2.11;92.95;98683.53;5035200;28;20039;-66
2022/11/23 11:40:20;;;;;;;4.78;4.38;;;;;;;1.94;93.00;98688.69;5033290;28;20210;-65
2022/11/23 11:42:49;;;;;;;5.47;4.88;;;;;;;1.67;93.42;98653.03;5031141;28;20029;-65
2022/11/23 11:45:21;;;;;;;5.07;4.25;;;;;;;1.93;93.30;98682.75;5034045;28;20029;-66
2022/11/23 11:48:12;;;;;;;4.82;4.40;;;;;;;1.93;93.67;98675.09;5033185;28;20026;-66
2022/11/23 11:50:49;;;;;;;4.97;4.57;;;;;;;2.01;93.67;98692.94;5039113;28;20045;-66
2022/11/23 11:53:21;;;;;;;5.28;4.78;;;;;;;1.95;93.30;98692.97;5032008;28;20029;-66
2022/11/23 11:55:52;;;;;;;5.40;4.85;;;;;;;1.89;93.65;98699.78;5032241;28;20033;-67
2022/11/23 11:58:21;;;;;;;5.65;4.32;;;;;;;2.02;93.11;98705.72;5033603;28;20097;-66
2022/11/23 12:00:49;;;;;;;5.45;4.97;;;;;;;1.99;92.85;98703.16;5023073;28;20030;-66
2022/11/23 12:03:20;;;;;;;4.82;4.43;;;;;;;2.08;93.12;98715.03;5025309;28;20045;-67
2022/11/23 12:05:58;;;;;;;5.32;4.82;;;;;;;1.83;92.78;98710.00;5038861;28;20044;-67
2022/11/23 12:08:49;;;;;;;4.82;4.43;;;;;;;1.83;93.25;98715.09;5027641;28;20064;-69
2022/11/23 12:11:15;;;;;;;5.25;4.75;;;;;;;1.94;93.67;98714.22;5023047;28;20190;-67
2022/11/23 12:13:45;;;;;;;5.82;4.88;;;;;;;1.84;93.39;98696.41;5023097;28;20053;-66
2022/11/23 12:16:38;;;;;;;4.72;4.32;;;;;;;1.93;93.00;98725.31;5023073;28;20034;-66
2022/11/23 12:19:34;;;;;;;5.20;4.70;;;;;;;1.92;92.83;98726.16;5027161;28;20025;-66
2022/11/23 12:22:28;;;;;;;4.68;4.20;;;;;;;1.94;93.20;98732.09;5039943;28;20033;-67
2022/11/23 12:25:10;;;;;;;5.70;5.10;;;;;;;1.93;92.57;98730.44;5039273;28;20057;-66
2022/11/23 12:28:08;;;;;;;6.25;5.65;;;;;;;1.78;92.65;98734.72;5030664;28;20221;-66
2022/11/23 12:31:07;;;;;;;5.07;4.68;;;;;;;1.93;93.06;98744.03;5031903;28;20241;-65
2022/11/23 12:34:11;;;;;;;4.55;4.15;;;;;;;1.78;92.20;98737.25;5033299;28;20033;-67
2022/11/23 12:37:08;;;;;;;5.50;4.93;;;;;;;1.90;92.55;98749.97;5038514;28;20068;-66
2022/11/23 12:39:54;;;;;;;5.07;4.57;;;;;;;1.78;92.61;98749.16;5033428;28;20037;-66
2022/11/23 12:42:41;;;;;;;5.72;5.22;;;;;;;1.72;92.94;98750.00;5034250;28;20030;-66
2022/11/23 12:45:45;;;;;;;5.72;5.22;;;;;;;1.79;93.34;98756.81;5032348;28;20026;-67
2022/11/23 12:48:10;;;;;;;7.15;6.38;;;;;;;1.79;93.40;98756.81;5048868;28;20037;-66
2022/11/23 12:50:46;;;;;;;6.82;6.07;;;;;;;1.86;93.11;98755.94;5030713;28;20101;-67
2022/11/23 12:53:44;;;;;;;6.78;6.10;;;;;;;1.68;92.43;98748.31;5033527;28;20527;-66
2022/11/23 12:56:22;;;;;;;7.10;6.18;;;;;;;1.63;93.24;98739.81;5035246;28;20041;-67
2022/11/23 12:58:51;;;;;;;8.15;7.35;;;;;;;1.64;93.44;98751.72;5031515;28;20071;-66